createdAt,value
2019-04-14T00:00:46.842Z,3.76
2019-04-14T00:01:45.791Z,3.72
2019-04-14T00:02:46.879Z,3.70
2019-04-14T00:03:45.796Z,3.75
2019-04-14T00:04:46.570Z,3.76
2019-04-14T00:05:45.757Z,3.72
2019-04-14T00:06:46.294Z,3.76
2019-04-14T00:07:47.064Z,3.79
2019-04-14T00:08:45.925Z,3.78
2019-04-14T00:09:45.733Z,3.79
2019-04-14T00:10:46.447Z,3.84
2019-04-14T00:11:45.999Z,3.87
2019-04-14T00:12:46.946Z,3.80
2019-04-14T00:13:45.727Z,3.79
2019-04-14T00:14:46.678Z,3.78
2019-04-14T00:15:48.786Z,3.78
2019-04-14T00:16:46.704Z,3.75
2019-04-14T00:17:45.704Z,3.83
2019-04-14T00:18:46.873Z,3.83
2019-04-14T00:19:45.729Z,3.83
2019-04-14T00:20:45.585Z,3.84
2019-04-14T00:21:45.572Z,3.87
2019-04-14T00:22:46.743Z,3.88
2019-04-14T00:23:45.689Z,3.88
2019-04-14T00:24:46.655Z,3.86
2019-04-14T00:25:45.550Z,3.78
2019-04-14T00:26:46.621Z,3.84
2019-04-14T00:27:45.508Z,3.84
2019-04-14T00:28:45.513Z,3.80
2019-04-14T00:29:45.828Z,3.84
2019-04-14T00:30:45.478Z,3.87
2019-04-14T00:31:45.620Z,3.90
2019-04-14T00:32:46.483Z,3.87
2019-04-14T00:33:45.442Z,3.76
2019-04-14T00:34:46.423Z,3.79
2019-04-14T00:35:45.438Z,3.68
2019-04-14T00:36:45.939Z,3.69
2019-04-14T00:37:46.549Z,3.88
2019-04-14T00:38:45.646Z,3.75
2019-04-14T00:39:46.557Z,3.76
2019-04-14T00:40:45.478Z,3.75
2019-04-14T00:41:51.902Z,3.61
2019-04-14T00:42:47.337Z,3.65
2019-04-14T00:43:46.045Z,3.68
2019-04-14T00:44:45.358Z,3.66
2019-04-14T00:45:51.191Z,3.61
2019-04-14T00:46:47.365Z,3.61
2019-04-14T00:47:57.427Z,3.69
2019-04-14T00:48:47.311Z,3.58
2019-04-14T00:49:46.289Z,3.68
2019-04-14T00:50:45.299Z,3.66
2019-04-14T00:51:46.095Z,3.65
2019-04-14T00:52:45.831Z,3.60
2019-04-14T00:53:45.222Z,3.54
2019-04-14T00:54:45.680Z,3.52
2019-04-14T00:55:46.368Z,3.48
2019-04-14T00:56:45.463Z,3.35
2019-04-14T00:57:46.309Z,3.47
2019-04-14T00:58:45.412Z,3.42
2019-04-14T00:59:46.287Z,3.51
2019-04-14T01:00:45.228Z,3.43
2019-04-14T01:01:45.933Z,3.43
2019-04-14T01:02:45.126Z,3.51
2019-04-14T01:03:45.906Z,3.47
2019-04-14T01:04:45.108Z,3.48
2019-04-14T01:05:45.919Z,3.45
2019-04-14T01:06:45.116Z,3.54
2019-04-14T01:07:45.560Z,3.36
2019-04-14T01:08:45.065Z,3.45
2019-04-14T01:09:46.274Z,3.42
2019-04-14T01:10:45.423Z,3.48
2019-04-14T01:11:46.405Z,3.36
2019-04-14T01:12:45.324Z,3.42
2019-04-14T01:13:46.159Z,3.39
2019-04-14T01:14:45.301Z,3.35
2019-04-14T01:15:54.640Z,3.36
2019-04-14T01:16:47.253Z,3.33
2019-04-14T01:17:45.996Z,3.39
2019-04-14T01:18:45.141Z,3.45
2019-04-14T01:19:46.000Z,3.33
2019-04-14T01:20:45.005Z,3.42
2019-04-14T01:21:45.757Z,3.40
2019-04-14T01:22:44.907Z,3.39
2019-04-14T01:23:45.536Z,3.33
2019-04-14T01:24:44.894Z,3.36
2019-04-14T01:25:45.315Z,3.39
2019-04-14T01:26:44.882Z,3.36
2019-04-14T01:27:45.140Z,3.39
2019-04-14T01:28:46.058Z,3.39
2019-04-14T01:29:44.920Z,3.36
2019-04-14T01:30:45.768Z,3.36
2019-04-14T01:31:44.830Z,3.31
2019-04-14T01:32:45.761Z,3.33
2019-04-14T01:33:44.783Z,3.36
2019-04-14T01:34:45.549Z,3.36
2019-04-14T01:35:44.781Z,3.33
2019-04-14T01:36:45.309Z,3.36
2019-04-14T01:37:44.740Z,3.39
2019-04-14T01:38:45.034Z,3.36
2019-04-14T01:39:45.945Z,3.42
2019-04-14T01:40:44.703Z,3.36
2019-04-14T01:41:45.640Z,3.40
2019-04-14T01:42:44.694Z,3.45
2019-04-14T01:43:45.239Z,3.43
2019-04-14T01:44:45.927Z,3.43
2019-04-14T01:45:46.176Z,3.43
2019-04-14T01:46:45.690Z,3.43
2019-04-14T01:47:44.649Z,3.40
2019-04-14T01:48:45.392Z,3.39
2019-04-14T01:49:44.610Z,3.40
2019-04-14T01:50:45.214Z,3.48
2019-04-14T01:51:44.587Z,3.45
2019-04-14T01:52:45.764Z,3.43
2019-04-14T01:53:44.655Z,3.36
2019-04-14T01:54:45.316Z,3.47
2019-04-14T01:55:44.536Z,3.43
2019-04-14T01:56:44.967Z,3.45
2019-04-14T01:57:44.571Z,3.51
2019-04-14T01:58:44.754Z,3.43
2019-04-14T01:59:44.495Z,3.45
2019-04-14T02:00:44.581Z,3.47
2019-04-14T02:01:45.648Z,3.52
2019-04-14T02:02:44.499Z,3.45
2019-04-14T02:03:45.562Z,3.39
2019-04-14T02:04:44.459Z,3.55
2019-04-14T02:05:45.326Z,3.40
2019-04-14T02:06:44.425Z,3.43
2019-04-14T02:07:45.177Z,3.51
2019-04-14T02:08:45.725Z,3.55
2019-04-14T02:09:44.718Z,3.50
2019-04-14T02:10:45.622Z,3.42
2019-04-14T02:11:44.556Z,3.50
2019-04-14T02:12:45.235Z,3.50
2019-04-14T02:13:44.360Z,3.39
2019-04-14T02:14:45.147Z,3.36
2019-04-14T02:15:44.339Z,3.45
2019-04-14T02:16:49.821Z,3.50
2019-04-14T02:17:46.083Z,3.42
2019-04-14T02:18:44.913Z,3.43
2019-04-14T02:19:44.273Z,3.42
2019-04-14T02:20:44.739Z,3.43
2019-04-14T02:21:45.506Z,3.45
2019-04-14T02:22:44.260Z,3.36
2019-04-14T02:23:45.324Z,3.39
2019-04-14T02:24:44.226Z,3.40
2019-04-14T02:25:45.027Z,3.40
2019-04-14T02:26:44.209Z,3.45
2019-04-14T02:27:45.099Z,3.45
2019-04-14T02:28:44.203Z,3.40
2019-04-14T02:29:45.124Z,3.40
2019-04-14T02:30:53.781Z,3.47
2019-04-14T02:32:11.451Z,3.35
2019-04-14T02:33:17.156Z,3.35
2019-04-14T02:34:17.464Z,3.29
2019-04-14T02:35:13.616Z,3.40
2019-04-14T02:36:21.892Z,3.39
2019-04-14T02:37:10.793Z,3.40
2019-04-14T02:38:38.821Z,3.40
2019-04-14T02:39:15.543Z,3.48
2019-04-14T02:43:12.830Z,3.48
2019-04-14T02:44:16.095Z,3.40
2019-04-14T02:45:19.776Z,3.40
2019-04-14T02:46:15.744Z,3.42
2019-04-14T02:47:39.334Z,3.42
2019-04-14T02:48:39.694Z,3.40
2019-04-14T02:49:31.142Z,3.43
2019-04-14T02:51:13.810Z,3.43
2019-04-14T02:52:12.359Z,3.36
2019-04-14T02:53:18.424Z,3.42
2019-04-14T02:54:14.293Z,3.39
2019-04-14T02:55:21.317Z,3.47
2019-04-14T02:56:16.070Z,3.40
2019-04-14T02:57:26.783Z,3.43
2019-04-14T02:58:10.218Z,3.47
2019-04-14T02:59:29.110Z,3.43
2019-04-14T03:00:19.658Z,3.36
2019-04-14T03:01:19.421Z,3.40
2019-04-14T03:03:16.819Z,3.39
2019-04-14T03:04:04.049Z,3.40
2019-04-14T03:05:09.739Z,3.47
2019-04-14T03:06:33.552Z,3.40
2019-04-14T03:07:15.920Z,3.43
2019-04-14T03:08:13.103Z,3.42
2019-04-14T03:10:13.094Z,3.39
2019-04-14T03:11:18.680Z,3.40
2019-04-14T03:12:14.563Z,3.39
2019-04-14T03:13:15.703Z,3.40
2019-04-14T03:15:07.031Z,3.48
2019-04-14T03:16:15.534Z,3.40
2019-04-14T03:18:26.275Z,3.42
2019-04-14T03:19:06.766Z,3.43
2019-04-14T03:20:30.187Z,3.42
2019-04-14T03:21:15.567Z,3.45
2019-04-14T03:22:23.619Z,3.33
2019-04-14T03:24:12.752Z,3.42
2019-04-14T03:25:02.737Z,3.40
2019-04-14T03:26:08.323Z,3.42
2019-04-14T03:27:13.541Z,3.33
2019-04-14T03:28:11.266Z,3.40
2019-04-14T03:29:08.786Z,3.43
2019-04-14T03:30:32.901Z,3.43
2019-04-14T03:32:23.089Z,3.43
2019-04-14T03:34:21.287Z,3.42
2019-04-14T03:35:47.846Z,3.40
2019-04-14T03:36:59.774Z,3.45
2019-04-14T03:38:17.107Z,3.48
2019-04-14T03:39:09.786Z,3.48
2019-04-14T03:40:08.831Z,3.43
2019-04-14T03:41:17.471Z,3.40
2019-04-14T03:42:13.185Z,3.36
2019-04-14T03:43:33.769Z,3.39
2019-04-14T03:44:10.062Z,3.36
2019-04-14T03:45:14.277Z,3.39
2019-04-14T03:47:13.697Z,3.43
2019-04-14T03:49:32.302Z,3.45
2019-04-14T03:50:09.658Z,3.40
2019-04-14T03:51:16.681Z,3.48
2019-04-14T03:52:02.428Z,3.40
2019-04-14T03:53:17.523Z,3.36
2019-04-14T03:54:03.431Z,3.51
2019-04-14T03:55:02.695Z,3.50
2019-04-14T03:55:49.114Z,3.52
2019-04-14T03:56:44.320Z,3.47
2019-04-14T03:57:43.397Z,3.51
2019-04-14T03:58:44.332Z,3.50
2019-04-14T03:59:43.466Z,3.51
2019-04-14T04:00:44.272Z,3.52
2019-04-14T04:01:43.526Z,3.52
2019-04-14T04:02:44.413Z,3.51
2019-04-14T04:03:43.572Z,3.52
2019-04-14T04:04:43.125Z,3.51
2019-04-14T04:05:43.477Z,3.52
2019-04-14T04:06:44.163Z,3.54
2019-04-14T04:07:43.239Z,3.42
2019-04-14T04:08:44.113Z,3.36
2019-04-14T04:09:43.386Z,3.52
2019-04-14T04:10:44.262Z,3.52
2019-04-14T04:11:43.453Z,3.47
2019-04-14T04:12:44.284Z,3.36
2019-04-14T04:13:43.359Z,3.52
2019-04-14T04:14:44.110Z,3.42
2019-04-14T04:15:43.225Z,3.52
2019-04-14T04:16:43.964Z,3.42
2019-04-14T04:17:43.079Z,3.54
2019-04-14T04:18:50.896Z,3.54
2019-04-14T04:19:44.772Z,3.54
2019-04-14T04:20:43.463Z,3.48
2019-04-14T04:21:42.995Z,3.54
2019-04-14T04:22:43.450Z,3.39
2019-04-14T04:23:42.925Z,3.43
2019-04-14T04:24:43.308Z,3.40
2019-04-14T04:25:42.887Z,3.35
2019-04-14T04:26:43.016Z,3.36
2019-04-14T04:27:43.995Z,3.42
2019-04-14T04:28:42.913Z,3.40
2019-04-14T04:29:44.025Z,3.36
2019-04-14T04:30:42.843Z,3.36
2019-04-14T04:31:43.948Z,3.36
2019-04-14T04:32:42.813Z,3.40
2019-04-14T04:33:43.674Z,3.36
2019-04-14T04:34:42.818Z,3.35
2019-04-14T04:35:43.607Z,3.36
2019-04-14T04:36:42.776Z,3.36
2019-04-14T04:37:43.354Z,3.23
2019-04-14T04:38:42.745Z,3.40
2019-04-14T04:39:43.287Z,3.39
2019-04-14T04:40:43.901Z,3.33
2019-04-14T04:41:42.901Z,3.26
2019-04-14T04:42:43.687Z,3.24
2019-04-14T04:43:43.000Z,3.31
2019-04-14T04:44:42.683Z,3.26
2019-04-14T04:45:43.102Z,3.31
2019-04-14T04:46:43.714Z,3.24
2019-04-14T04:47:42.716Z,3.24
2019-04-14T04:48:43.716Z,3.24
2019-04-14T04:49:42.734Z,3.21
2019-04-14T04:50:43.140Z,3.24
2019-04-14T04:51:42.605Z,3.28
2019-04-14T04:52:42.927Z,3.23
2019-04-14T04:53:42.579Z,3.20
2019-04-14T04:54:42.840Z,3.32
2019-04-14T04:55:43.788Z,3.28
2019-04-14T04:56:42.735Z,3.24
2019-04-14T04:57:43.617Z,3.24
2019-04-14T04:58:43.483Z,3.26
2019-04-14T04:59:43.081Z,3.39
2019-04-14T05:00:43.809Z,3.24
2019-04-14T05:01:42.918Z,3.31
2019-04-14T05:02:42.487Z,3.26
2019-04-14T05:03:42.804Z,3.23
2019-04-14T05:04:43.726Z,3.28
2019-04-14T05:05:42.739Z,3.29
2019-04-14T05:06:43.639Z,3.21
2019-04-14T05:07:42.699Z,3.23
2019-04-14T05:08:43.445Z,3.28
2019-04-14T05:09:42.735Z,3.23
2019-04-14T05:10:43.544Z,3.31
2019-04-14T05:11:42.668Z,3.20
2019-04-14T05:12:43.534Z,3.20
2019-04-14T05:13:42.492Z,3.23
2019-04-14T05:14:43.378Z,3.26
2019-04-14T05:15:42.472Z,3.23
2019-04-14T05:16:42.332Z,3.29
2019-04-14T05:17:43.105Z,3.29
2019-04-14T05:18:42.328Z,3.29
2019-04-14T05:19:43.498Z,3.29
2019-04-14T05:20:42.304Z,3.28
2019-04-14T05:21:43.069Z,3.28
2019-04-14T05:22:42.262Z,3.29
2019-04-14T05:23:43.133Z,3.21
2019-04-14T05:24:42.247Z,3.21
2019-04-14T05:25:43.023Z,3.33
2019-04-14T05:26:42.224Z,3.39
2019-04-14T05:27:43.047Z,3.40
2019-04-14T05:28:42.244Z,3.40
2019-04-14T05:29:43.030Z,3.43
2019-04-14T05:30:42.178Z,3.40
2019-04-14T05:31:42.583Z,3.45
2019-04-14T05:32:43.349Z,3.45
2019-04-14T05:33:42.577Z,3.36
2019-04-14T05:34:43.149Z,3.42
2019-04-14T05:35:42.392Z,3.48
2019-04-14T05:36:43.196Z,3.45
2019-04-14T05:37:42.182Z,3.57
2019-04-14T05:38:42.852Z,3.55
2019-04-14T05:39:42.137Z,3.58
2019-04-14T05:40:42.913Z,3.62
2019-04-14T05:41:54.985Z,3.61
2019-04-14T05:42:43.041Z,3.68
2019-04-14T05:43:48.793Z,3.75
2019-04-14T05:44:43.057Z,3.72
2019-04-14T05:45:42.034Z,3.78
2019-04-14T05:46:42.481Z,3.75
2019-04-14T05:47:41.991Z,3.83
2019-04-14T05:48:42.516Z,3.86
2019-04-14T05:49:46.869Z,3.86
2019-04-14T05:50:42.994Z,3.87
2019-04-14T05:51:41.946Z,3.94
2019-04-14T05:52:42.596Z,3.97
2019-04-14T05:53:41.925Z,4.00
2019-04-14T05:54:42.541Z,3.96
2019-04-14T05:55:41.922Z,4.04
2019-04-14T05:56:42.550Z,3.98
2019-04-14T05:57:41.889Z,4.06
2019-04-14T05:58:42.501Z,4.05
2019-04-14T05:59:41.928Z,4.15
2019-04-14T06:00:42.132Z,4.26
2019-04-14T06:01:42.121Z,4.22
2019-04-14T06:02:42.031Z,4.24
2019-04-14T06:03:43.140Z,4.23
2019-04-14T06:04:41.840Z,4.41
2019-04-14T06:05:42.830Z,4.27
2019-04-14T06:06:41.782Z,4.44
2019-04-14T06:07:41.788Z,4.37
2019-04-14T06:08:41.754Z,4.50
2019-04-14T06:09:41.774Z,4.54
2019-04-14T06:10:41.750Z,4.54
2019-04-14T06:11:41.735Z,4.59
2019-04-14T06:12:41.715Z,4.58
2019-04-14T06:13:41.724Z,4.63
2019-04-14T06:14:41.690Z,4.60
2019-04-14T06:15:41.713Z,4.78
2019-04-14T06:16:41.675Z,4.75
2019-04-14T06:17:41.654Z,4.84
2019-04-14T06:18:41.673Z,4.88
2019-04-14T06:19:41.631Z,4.89
2019-04-14T06:20:41.653Z,4.97
2019-04-14T06:21:41.612Z,4.92
2019-04-14T06:22:41.606Z,5.03
2019-04-14T06:23:41.587Z,5.04
2019-04-14T06:24:41.585Z,5.09
2019-04-14T06:25:41.606Z,5.10
2019-04-14T06:26:41.578Z,5.17
2019-04-14T06:27:41.542Z,5.17
2019-04-14T06:28:41.569Z,5.35
2019-04-14T06:29:41.523Z,5.39
2019-04-14T06:30:41.533Z,5.30
2019-04-14T06:31:41.539Z,5.39
2019-04-14T06:32:41.510Z,5.43
2019-04-14T06:33:41.489Z,5.54
2019-04-14T06:34:41.482Z,5.60
2019-04-14T06:35:41.456Z,5.67
2019-04-14T06:36:41.479Z,5.68
2019-04-14T06:37:41.439Z,5.75
2019-04-14T06:38:41.424Z,5.78
2019-04-14T06:39:41.459Z,5.71
2019-04-14T06:40:41.409Z,5.78
2019-04-14T06:41:41.430Z,5.90
2019-04-14T06:42:41.396Z,5.86
2019-04-14T06:43:48.683Z,5.81
2019-04-14T06:44:42.393Z,5.81
2019-04-14T06:45:41.396Z,5.83
2019-04-14T06:46:41.372Z,5.82
2019-04-14T06:47:41.349Z,5.83
2019-04-14T06:48:41.330Z,5.93
2019-04-14T06:49:48.727Z,5.96
2019-04-14T06:50:42.301Z,5.93
2019-04-14T06:51:41.295Z,5.93
2019-04-14T06:52:41.344Z,6.08
2019-04-14T06:53:41.276Z,6.00
2019-04-14T06:54:41.261Z,6.01
2019-04-14T06:55:41.265Z,6.01
2019-04-14T06:56:41.327Z,6.06
2019-04-14T06:57:41.250Z,6.08
2019-04-14T06:58:41.218Z,6.06
2019-04-14T06:59:41.206Z,6.04
2019-04-14T07:00:41.195Z,6.12
2019-04-14T07:01:41.205Z,6.15
2019-04-14T07:02:41.240Z,6.18
2019-04-14T07:03:41.150Z,6.18
2019-04-14T07:04:41.153Z,6.18
2019-04-14T07:05:41.155Z,6.27
2019-04-14T07:06:41.129Z,6.27
2019-04-14T07:07:41.121Z,6.25
2019-04-14T07:08:41.123Z,6.38
2019-04-14T07:09:41.094Z,6.41
2019-04-14T07:10:41.089Z,6.44
2019-04-14T07:11:41.065Z,6.51
2019-04-14T07:12:42.989Z,6.46
2019-04-14T07:13:41.084Z,6.59
2019-04-14T07:14:41.082Z,6.59
2019-04-14T07:15:41.044Z,6.66
2019-04-14T07:16:41.009Z,6.67
2019-04-14T07:17:41.020Z,6.80
2019-04-14T07:18:41.034Z,6.88
2019-04-14T07:19:41.014Z,6.84
2019-04-14T07:20:40.982Z,6.97
2019-04-14T07:21:40.961Z,7.05
2019-04-14T07:22:40.983Z,7.13
2019-04-14T07:23:40.934Z,7.20
2019-04-14T07:24:40.926Z,7.16
2019-04-14T07:25:40.940Z,7.20
2019-04-14T07:26:40.895Z,7.17
2019-04-14T07:27:40.930Z,7.12
2019-04-14T07:28:40.882Z,7.06
2019-04-14T07:29:40.863Z,7.07
2019-04-14T07:30:40.866Z,7.05
2019-04-14T07:31:40.872Z,7.03
2019-04-14T07:32:40.854Z,7.03
2019-04-14T07:33:40.826Z,7.15
2019-04-14T07:34:40.822Z,7.20
2019-04-14T07:35:40.856Z,7.17
2019-04-14T07:36:40.789Z,7.23
2019-04-14T07:37:40.784Z,7.24
2019-04-14T07:38:40.788Z,7.23
2019-04-14T07:39:40.753Z,7.28
2019-04-14T07:40:40.751Z,7.25
2019-04-14T07:41:40.738Z,7.25
2019-04-14T07:42:40.722Z,7.21
2019-04-14T07:43:40.749Z,7.23
2019-04-14T07:44:40.710Z,7.28
2019-04-14T07:45:40.689Z,7.25
2019-04-14T07:46:40.680Z,7.31
2019-04-14T07:47:40.683Z,7.37
2019-04-14T07:48:40.703Z,7.40
2019-04-14T07:49:40.657Z,7.50
2019-04-14T07:50:40.651Z,7.52
2019-04-14T07:51:40.628Z,7.68
2019-04-14T07:52:40.617Z,7.69
2019-04-14T07:53:40.628Z,7.77
2019-04-14T07:54:41.387Z,7.89
2019-04-14T07:55:40.588Z,7.89
2019-04-14T07:56:40.574Z,7.92
2019-04-14T07:57:40.571Z,7.95
2019-04-14T07:58:40.566Z,7.93
2019-04-14T07:59:40.532Z,8.05
2019-04-14T08:00:40.533Z,8.05
2019-04-14T08:01:40.523Z,8.08
2019-04-14T08:02:40.502Z,8.12
2019-04-14T08:03:40.503Z,8.12
2019-04-14T08:04:40.487Z,8.15
2019-04-14T08:05:40.472Z,8.22
2019-04-14T08:06:40.459Z,8.29
2019-04-14T08:07:40.466Z,8.34
2019-04-14T08:08:40.467Z,8.38
2019-04-14T08:09:40.435Z,8.43
2019-04-14T08:10:40.425Z,8.59
2019-04-14T08:11:40.410Z,8.68
2019-04-14T08:12:40.392Z,8.61
2019-04-14T08:13:40.405Z,8.63
2019-04-14T08:14:40.372Z,8.77
2019-04-14T08:15:40.400Z,8.79
2019-04-14T08:16:40.368Z,8.98
2019-04-14T08:17:40.342Z,9.02
2019-04-14T08:18:40.374Z,9.14
2019-04-14T08:19:40.376Z,9.23
2019-04-14T08:20:40.308Z,9.35
2019-04-14T08:21:40.296Z,9.35
2019-04-14T08:22:40.289Z,9.51
2019-04-14T08:23:40.310Z,9.58
2019-04-14T08:24:40.299Z,9.61
2019-04-14T08:25:40.263Z,9.74
2019-04-14T08:26:40.235Z,9.66
2019-04-14T08:27:40.233Z,9.81
2019-04-14T08:28:40.221Z,9.84
2019-04-14T08:29:40.222Z,9.81
2019-04-14T08:30:40.210Z,9.91
2019-04-14T08:31:40.200Z,9.96
2019-04-14T08:32:40.179Z,10.01
2019-04-14T08:33:40.166Z,9.97
2019-04-14T08:34:40.168Z,10.02
2019-04-14T08:35:40.142Z,10.15
2019-04-14T08:36:40.130Z,10.18
2019-04-14T08:37:40.118Z,10.22
2019-04-14T08:38:40.113Z,10.26
2019-04-14T08:39:40.119Z,10.25
2019-04-14T08:40:40.092Z,10.47
2019-04-14T08:41:40.079Z,10.32
2019-04-14T08:42:40.071Z,10.45
2019-04-14T08:43:40.064Z,10.45
2019-04-14T08:44:40.068Z,10.51
2019-04-14T08:45:40.113Z,10.47
2019-04-14T08:46:40.045Z,10.47
2019-04-14T08:47:40.027Z,10.44
2019-04-14T08:48:39.994Z,10.51
2019-04-14T08:49:40.007Z,10.45
2019-04-14T08:50:40.021Z,10.40
2019-04-14T08:51:39.964Z,10.34
2019-04-14T08:52:39.954Z,10.40
2019-04-14T08:53:39.937Z,10.48
2019-04-14T08:54:39.970Z,10.53
2019-04-14T08:55:39.920Z,10.60
2019-04-14T08:56:39.909Z,10.64
2019-04-14T08:57:39.898Z,10.67
2019-04-14T08:58:39.890Z,10.70
2019-04-14T08:59:39.871Z,10.86
2019-04-14T09:00:39.886Z,10.88
2019-04-14T09:01:39.857Z,10.99
2019-04-14T09:02:39.855Z,11.09
2019-04-14T09:03:39.832Z,11.19
2019-04-14T09:04:39.821Z,11.29
2019-04-14T09:05:39.843Z,11.24
2019-04-14T09:06:39.802Z,11.32
2019-04-14T09:07:39.782Z,11.37
2019-04-14T09:08:39.774Z,11.42
2019-04-14T09:09:39.781Z,11.57
2019-04-14T09:10:39.796Z,11.61
2019-04-14T09:11:39.752Z,11.69
2019-04-14T09:12:39.733Z,11.76
2019-04-14T09:13:39.732Z,11.86
2019-04-14T09:14:39.717Z,11.85
2019-04-14T09:15:39.729Z,11.85
2019-04-14T09:16:39.715Z,11.99
2019-04-14T09:17:39.694Z,12.04
2019-04-14T09:18:39.673Z,12.05
2019-04-14T09:19:39.665Z,12.17
2019-04-14T09:20:51.359Z,12.21
2019-04-14T09:21:40.726Z,12.16
2019-04-14T09:22:39.634Z,12.23
2019-04-14T09:23:39.613Z,12.23
2019-04-14T09:24:39.691Z,12.21
2019-04-14T09:25:39.625Z,12.29
2019-04-14T09:26:39.630Z,12.21
2019-04-14T09:27:39.576Z,12.41
2019-04-14T09:28:39.552Z,12.35
2019-04-14T09:29:39.555Z,12.45
2019-04-14T09:30:39.554Z,12.50
2019-04-14T09:31:39.566Z,12.53
2019-04-14T09:32:39.507Z,12.62
2019-04-14T09:33:39.524Z,12.57
2019-04-14T09:34:39.494Z,12.47
2019-04-14T09:35:39.492Z,12.49
2019-04-14T09:36:39.484Z,12.46
2019-04-14T09:37:39.465Z,12.45
2019-04-14T09:38:39.453Z,12.47
2019-04-14T09:39:39.434Z,12.52
2019-04-14T09:40:39.432Z,12.59
2019-04-14T09:41:39.461Z,12.52
2019-04-14T09:42:39.421Z,12.57
2019-04-14T09:43:39.390Z,12.62
2019-04-14T09:44:39.382Z,12.74
2019-04-14T09:45:39.378Z,12.75
2019-04-14T09:46:39.376Z,12.86
2019-04-14T09:47:39.402Z,12.85
2019-04-14T09:48:39.365Z,12.90
2019-04-14T09:49:39.321Z,12.90
2019-04-14T09:50:39.330Z,12.90
2019-04-14T09:51:39.334Z,13.03
2019-04-14T09:52:39.323Z,13.20
2019-04-14T09:53:39.291Z,13.39
2019-04-14T09:54:39.259Z,13.66
2019-04-14T09:55:39.258Z,13.77
2019-04-14T09:56:39.261Z,13.81
2019-04-14T09:57:39.227Z,13.82
2019-04-14T09:58:39.222Z,13.82
2019-04-14T09:59:39.211Z,13.84
2019-04-14T10:00:39.220Z,13.82
2019-04-14T10:01:39.203Z,13.75
2019-04-14T10:02:39.213Z,13.70
2019-04-14T10:03:39.172Z,13.84
2019-04-14T10:04:39.147Z,13.79
2019-04-14T10:05:39.151Z,13.84
2019-04-14T10:06:40.899Z,13.79
2019-04-14T10:07:39.153Z,13.79
2019-04-14T10:08:39.114Z,13.79
2019-04-14T10:09:39.092Z,13.67
2019-04-14T10:10:39.085Z,13.70
2019-04-14T10:11:48.431Z,13.66
2019-04-14T10:12:40.082Z,13.62
2019-04-14T10:13:39.050Z,13.64
2019-04-14T10:14:39.046Z,13.64
2019-04-14T10:15:39.033Z,13.59
2019-04-14T10:16:39.021Z,13.59
2019-04-14T10:17:39.029Z,13.69
2019-04-14T10:18:39.029Z,13.71
2019-04-14T10:19:38.984Z,13.73
2019-04-14T10:20:38.980Z,13.69
2019-04-14T10:21:38.964Z,13.71
2019-04-14T10:22:38.976Z,13.77
2019-04-14T10:23:39.601Z,13.69
2019-04-14T10:24:38.933Z,13.67
2019-04-14T10:25:38.930Z,13.67
2019-04-14T10:26:38.916Z,13.78
2019-04-14T10:27:38.893Z,13.79
2019-04-14T10:28:38.910Z,13.73
2019-04-14T10:29:38.896Z,13.75
2019-04-14T10:30:38.868Z,13.92
2019-04-14T10:31:38.861Z,13.87
2019-04-14T10:32:38.864Z,13.85
2019-04-14T10:33:38.850Z,13.97
2019-04-14T10:34:38.820Z,13.91
2019-04-14T10:35:38.833Z,13.91
2019-04-14T10:36:38.814Z,13.88
2019-04-14T10:37:38.786Z,13.69
2019-04-14T10:38:38.797Z,13.85
2019-04-14T10:39:38.771Z,13.87
2019-04-14T10:40:38.768Z,13.84
2019-04-14T10:41:38.762Z,13.92
2019-04-14T10:42:38.762Z,14.07
2019-04-14T10:43:38.761Z,14.14
2019-04-14T10:44:38.732Z,14.07
2019-04-14T10:45:38.696Z,14.10
2019-04-14T10:46:38.695Z,14.15
2019-04-14T10:47:38.686Z,14.17
2019-04-14T10:48:38.800Z,14.12
2019-04-14T10:49:38.654Z,14.17
2019-04-14T10:50:38.684Z,14.06
2019-04-14T10:51:38.636Z,14.10
2019-04-14T10:52:38.646Z,14.03
2019-04-14T10:53:38.637Z,14.09
2019-04-14T10:54:38.634Z,14.04
2019-04-14T10:55:38.605Z,14.00
2019-04-14T10:56:38.578Z,13.92
2019-04-14T10:57:38.565Z,13.95
2019-04-14T10:58:38.579Z,13.92
2019-04-14T10:59:38.580Z,13.97
2019-04-14T11:00:38.533Z,14.00
2019-04-14T11:01:38.536Z,14.00
2019-04-14T11:02:38.520Z,14.02
2019-04-14T11:03:38.548Z,14.04
2019-04-14T11:04:38.510Z,14.07
2019-04-14T11:05:38.477Z,14.14
2019-04-14T11:06:38.490Z,14.24
2019-04-14T11:07:38.454Z,14.14
2019-04-14T11:08:38.451Z,14.14
2019-04-14T11:09:38.456Z,14.07
2019-04-14T11:10:38.443Z,14.06
2019-04-14T11:11:38.421Z,14.09
2019-04-14T11:12:38.408Z,14.09
2019-04-14T11:13:38.403Z,13.91
2019-04-14T11:14:38.445Z,13.89
2019-04-14T11:15:38.386Z,13.84
2019-04-14T11:16:38.361Z,13.75
2019-04-14T11:17:38.346Z,13.69
2019-04-14T11:18:38.361Z,13.57
2019-04-14T11:19:38.441Z,13.64
2019-04-14T11:20:38.319Z,13.54
2019-04-14T11:21:42.846Z,13.51
2019-04-14T11:22:38.318Z,13.42
2019-04-14T11:23:38.316Z,13.38
2019-04-14T11:24:38.362Z,13.32
2019-04-14T11:25:38.267Z,13.25
2019-04-14T11:26:38.249Z,13.20
2019-04-14T11:27:38.260Z,13.20
2019-04-14T11:28:38.231Z,13.08
2019-04-14T11:29:38.220Z,12.96
2019-04-14T11:30:38.233Z,12.87
2019-04-14T11:31:38.211Z,12.92
2019-04-14T11:32:38.200Z,12.85
2019-04-14T11:33:38.205Z,12.85
2019-04-14T11:34:38.173Z,12.87
2019-04-14T11:35:38.193Z,12.77
2019-04-14T11:36:38.162Z,12.82
2019-04-14T11:37:38.130Z,12.82
2019-04-14T11:38:38.122Z,12.93
2019-04-14T11:39:38.122Z,12.83
2019-04-14T11:40:38.118Z,12.79
2019-04-14T11:41:38.085Z,12.90
2019-04-14T11:42:38.088Z,12.89
2019-04-14T11:43:38.076Z,13.03
2019-04-14T11:44:38.072Z,13.03
2019-04-14T11:45:38.119Z,13.00
2019-04-14T11:46:38.042Z,12.93
2019-04-14T11:47:38.102Z,13.10
2019-04-14T11:48:38.008Z,13.12
2019-04-14T11:49:37.990Z,13.29
2019-04-14T11:50:38.002Z,13.26
2019-04-14T11:51:37.988Z,13.28
2019-04-14T11:52:37.955Z,13.36
2019-04-14T11:53:37.960Z,13.54
2019-04-14T11:54:37.951Z,13.59
2019-04-14T11:55:37.952Z,13.70
2019-04-14T11:56:37.933Z,13.71
2019-04-14T11:57:37.954Z,13.84
2019-04-14T11:58:37.903Z,13.84
2019-04-14T11:59:37.878Z,13.82
2019-04-14T12:00:37.880Z,13.85
2019-04-14T12:01:37.881Z,13.81
2019-04-14T12:02:37.919Z,13.77
2019-04-14T12:03:37.847Z,13.69
2019-04-14T12:04:37.837Z,13.73
2019-04-14T12:05:37.815Z,13.84
2019-04-14T12:06:37.803Z,13.85
2019-04-14T12:07:37.818Z,13.89
2019-04-14T12:08:37.796Z,13.97
2019-04-14T12:09:37.768Z,14.07
2019-04-14T12:10:37.775Z,14.09
2019-04-14T12:11:37.770Z,14.20
2019-04-14T12:12:37.765Z,14.25
2019-04-14T12:13:37.749Z,14.24
2019-04-14T12:14:37.725Z,14.29
2019-04-14T12:15:37.701Z,14.24
2019-04-14T12:16:37.732Z,14.21
2019-04-14T12:17:37.680Z,14.39
2019-04-14T12:18:37.687Z,14.32
2019-04-14T12:19:37.717Z,14.27
2019-04-14T12:20:37.655Z,14.24
2019-04-14T12:21:37.813Z,14.02
2019-04-14T12:22:37.628Z,14.03
2019-04-14T12:23:37.622Z,13.95
2019-04-14T12:24:37.605Z,13.91
2019-04-14T12:25:37.626Z,13.82
2019-04-14T12:26:37.597Z,13.82
2019-04-14T12:27:37.584Z,13.91
2019-04-14T12:28:38.328Z,14.09
2019-04-14T12:29:37.555Z,14.06
2019-04-14T12:30:37.786Z,14.20
2019-04-14T12:31:37.547Z,14.28
2019-04-14T12:32:37.542Z,14.25
2019-04-14T12:33:37.505Z,14.25
2019-04-14T12:34:37.521Z,14.22
2019-04-14T12:35:37.514Z,14.18
2019-04-14T12:36:37.511Z,14.21
2019-04-14T12:37:37.471Z,14.06
2019-04-14T12:38:37.462Z,14.17
2019-04-14T12:39:37.444Z,14.17
2019-04-14T12:40:37.452Z,14.20
2019-04-14T12:41:37.702Z,14.28
2019-04-14T12:42:37.428Z,14.25
2019-04-14T12:43:37.397Z,14.27
2019-04-14T12:44:37.388Z,14.40
2019-04-14T12:45:37.399Z,14.42
2019-04-14T12:46:37.426Z,14.55
2019-04-14T12:47:40.439Z,14.55
2019-04-14T12:48:37.348Z,14.55
2019-04-14T12:49:37.333Z,14.57
2019-04-14T12:50:37.342Z,14.45
2019-04-14T12:51:37.308Z,14.37
2019-04-14T12:52:37.314Z,14.27
2019-04-14T12:53:37.295Z,14.32
2019-04-14T12:54:37.289Z,14.29
2019-04-14T12:55:37.268Z,14.45
2019-04-14T12:56:37.272Z,14.46
2019-04-14T12:57:37.257Z,14.52
2019-04-14T12:58:37.232Z,14.61
2019-04-14T12:59:37.228Z,14.61
2019-04-14T13:00:37.209Z,14.68
2019-04-14T13:01:37.205Z,14.69
2019-04-14T13:02:37.220Z,14.62
2019-04-14T13:03:37.189Z,14.60
2019-04-14T13:04:37.184Z,14.60
2019-04-14T13:05:37.162Z,14.47
2019-04-14T13:06:37.152Z,14.29
2019-04-14T13:07:37.218Z,14.27
2019-04-14T13:08:37.119Z,14.18
2019-04-14T13:09:37.126Z,14.06
2019-04-14T13:10:37.096Z,14.10
2019-04-14T13:11:37.091Z,14.09
2019-04-14T13:12:37.115Z,14.22
2019-04-14T13:13:37.080Z,14.22
2019-04-14T13:14:37.054Z,14.20
2019-04-14T13:15:37.058Z,14.29
2019-04-14T13:16:37.038Z,14.39
2019-04-14T13:17:37.021Z,14.35
2019-04-14T13:18:37.029Z,14.43
2019-04-14T13:19:37.047Z,14.54
2019-04-14T13:20:36.988Z,14.58
2019-04-14T13:21:36.989Z,14.54
2019-04-14T13:22:36.991Z,14.60